sensor_id;sensor_type;location;lat;lon;timestamp;pressure;altitude;pressure_sealevel;temperature;humidity
7660;BME280;3872;47.902;8.162;2024-03-23T00:53:59;91375.47;;;13.75;63.88
7660;BME280;3872;47.902;8.162;2024-03-23T00:56:24;91370.69;;;14.34;60.33
7660;BME280;3872;47.902;8.162;2024-03-23T00:58:51;91368.94;;;14.38;60.13
7660;BME280;3872;47.902;8.162;2024-03-23T01:01:16;91361.03;;;14.99;57.41
7660;BME280;3872;47.902;8.162;2024-03-23T01:03:43;91362.47;;;14.72;58.81
7660;BME280;3872;47.902;8.162;2024-03-23T01:06:09;91358.47;;;15.15;57.48
7660;BME280;3872;47.902;8.162;2024-03-23T01:08:35;91351.53;;;14.86;58.46
7660;BME280;3872;47.902;8.162;2024-03-23T01:11:02;91351.09;;;15.08;58.38
7660;BME280;3872;47.902;8.162;2024-03-23T01:13:29;91354.75;;;14.22;61.93
7660;BME280;3872;47.902;8.162;2024-03-23T01:15:56;91355.06;;;14.66;61.82
7660;BME280;3872;47.902;8.162;2024-03-23T01:18:23;91342.56;;;15.15;59.18
7660;BME280;3872;47.902;8.162;2024-03-23T01:20:49;91324.50;;;14.80;61.03
7660;BME280;3872;47.902;8.162;2024-03-23T01:23:16;91332.38;;;15.53;57.77
7660;BME280;3872;47.902;8.162;2024-03-23T01:25:41;91327.06;;;14.77;61.11
7660;BME280;3872;47.902;8.162;2024-03-23T01:28:09;91333.56;;;14.55;62.55
7660;BME280;3872;47.902;8.162;2024-03-23T01:30:35;91316.59;;;15.20;59.89
7660;BME280;3872;47.902;8.162;2024-03-23T01:33:02;91320.97;;;15.01;60.71
7660;BME280;3872;47.902;8.162;2024-03-23T01:35:28;91311.81;;;15.38;58.67
7660;BME280;3872;47.902;8.162;2024-03-23T01:37:55;91306.59;;;15.02;60.14
7660;BME280;3872;47.902;8.162;2024-03-23T01:40:20;91300.13;;;14.75;61.11
7660;BME280;3872;47.902;8.162;2024-03-23T01:42:56;91300.63;;;15.17;59.06
7660;BME280;3872;47.902;8.162;2024-03-23T01:45:23;91306.63;;;14.65;61.72
7660;BME280;3872;47.902;8.162;2024-03-23T01:47:51;91303.31;;;14.44;63.83
7660;BME280;3872;47.902;8.162;2024-03-23T01:50:16;91300.25;;;15.31;59.54
7660;BME280;3872;47.902;8.162;2024-03-23T01:52:43;91287.72;;;15.43;58.65
7660;BME280;3872;47.902;8.162;2024-03-23T01:55:09;91293.94;;;14.83;62.16
7660;BME280;3872;47.902;8.162;2024-03-23T01:57:36;91288.94;;;14.94;62.03
7660;BME280;3872;47.902;8.162;2024-03-23T02:00:02;91271.00;;;14.75;63.50
7660;BME280;3872;47.902;8.162;2024-03-23T02:02:42;91274.97;;;14.81;62.46
7660;BME280;3872;47.902;8.162;2024-03-23T02:05:08;91275.88;;;14.48;63.58
7660;BME280;3872;47.902;8.162;2024-03-23T02:07:35;91271.03;;;15.15;61.35
7660;BME280;3872;47.902;8.162;2024-03-23T02:10:01;91262.41;;;14.66;63.52
7660;BME280;3872;47.902;8.162;2024-03-23T02:12:27;91265.53;;;15.08;62.48
7660;BME280;3872;47.902;8.162;2024-03-23T02:14:53;91266.56;;;14.79;63.38
7660;BME280;3872;47.902;8.162;2024-03-23T02:17:19;91269.91;;;14.39;64.76
7660;BME280;3872;47.902;8.162;2024-03-23T02:19:46;91270.78;;;15.60;60.64
7660;BME280;3872;47.902;8.162;2024-03-23T02:22:13;91268.66;;;16.25;57.58
7660;BME280;3872;47.902;8.162;2024-03-23T02:24:42;91263.13;;;15.86;58.34
7660;BME280;3872;47.902;8.162;2024-03-23T02:27:09;91254.78;;;15.84;58.48
7660;BME280;3872;47.902;8.162;2024-03-23T02:29:34;91263.06;;;15.27;61.29
7660;BME280;3872;47.902;8.162;2024-03-23T02:32:01;91258.22;;;14.53;65.12
7660;BME280;3872;47.902;8.162;2024-03-23T02:34:27;91245.22;;;15.00;61.37
7660;BME280;3872;47.902;8.162;2024-03-23T02:36:53;91245.09;;;15.08;62.29
7660;BME280;3872;47.902;8.162;2024-03-23T02:39:19;91251.97;;;14.97;59.99
7660;BME280;3872;47.902;8.162;2024-03-23T02:41:47;91256.53;;;14.72;58.77
7660;BME280;3872;47.902;8.162;2024-03-23T02:44:13;91259.53;;;14.59;59.05
7660;BME280;3872;47.902;8.162;2024-03-23T02:46:40;91264.50;;;14.60;58.61
7660;BME280;3872;47.902;8.162;2024-03-23T02:49:06;91254.59;;;15.09;52.80
7660;BME280;3872;47.902;8.162;2024-03-23T02:51:33;91250.50;;;14.47;55.65
7660;BME280;3872;47.902;8.162;2024-03-23T02:53:58;91240.34;;;14.62;55.06
7660;BME280;3872;47.902;8.162;2024-03-23T02:56:25;91237.69;;;14.62;54.35
7660;BME280;3872;47.902;8.162;2024-03-23T02:58:52;91238.72;;;15.65;51.21
7660;BME280;3872;47.902;8.162;2024-03-23T03:01:19;91228.50;;;14.71;52.93
7660;BME280;3872;47.902;8.162;2024-03-23T03:03:44;91230.50;;;14.74;52.40
7660;BME280;3872;47.902;8.162;2024-03-23T03:06:11;91216.28;;;14.67;52.72
7660;BME280;3872;47.902;8.162;2024-03-23T03:08:36;91213.84;;;15.85;49.89
7660;BME280;3872;47.902;8.162;2024-03-23T03:11:05;91210.69;;;15.52;50.83
7660;BME280;3872;47.902;8.162;2024-03-23T03:13:31;91212.72;;;15.43;51.06
7660;BME280;3872;47.902;8.162;2024-03-23T03:15:59;91204.38;;;15.28;51.60
7660;BME280;3872;47.902;8.162;2024-03-23T03:18:24;91214.94;;;15.41;51.58
7660;BME280;3872;47.902;8.162;2024-03-23T03:20:54;91203.06;;;15.62;50.40
7660;BME280;3872;47.902;8.162;2024-03-23T03:23:19;91200.41;;;15.78;50.58
7660;BME280;3872;47.902;8.162;2024-03-23T03:25:46;91191.03;;;14.97;53.11
7660;BME280;3872;47.902;8.162;2024-03-23T03:28:11;91197.69;;;14.79;53.73
7660;BME280;3872;47.902;8.162;2024-03-23T03:30:38;91191.94;;;15.73;51.84
7660;BME280;3872;47.902;8.162;2024-03-23T03:33:06;91180.53;;;15.72;52.35
7660;BME280;3872;47.902;8.162;2024-03-23T03:35:32;91178.25;;;15.43;54.08
7660;BME280;3872;47.902;8.162;2024-03-23T03:37:58;91180.78;;;15.23;54.34
7660;BME280;3872;47.902;8.162;2024-03-23T03:40:24;91176.19;;;14.80;55.58
7660;BME280;3872;47.902;8.162;2024-03-23T03:42:50;91165.59;;;14.04;59.85
7660;BME280;3872;47.902;8.162;2024-03-23T03:45:17;91168.19;;;15.20;55.92
7660;BME280;3872;47.902;8.162;2024-03-23T03:47:42;91161.53;;;15.54;55.13
7660;BME280;3872;47.902;8.162;2024-03-23T03:50:10;91152.06;;;14.70;58.42
7660;BME280;3872;47.902;8.162;2024-03-23T03:52:36;91151.94;;;14.66;59.49
7660;BME280;3872;47.902;8.162;2024-03-23T03:55:03;91135.00;;;15.11;57.93
7660;BME280;3872;47.902;8.162;2024-03-23T03:57:29;91118.88;;;15.75;56.55
7660;BME280;3872;47.902;8.162;2024-03-23T03:59:56;91130.06;;;14.41;62.06
7660;BME280;3872;47.902;8.162;2024-03-23T04:02:22;91133.34;;;14.91;60.33
7660;BME280;3872;47.902;8.162;2024-03-23T04:04:48;91120.69;;;14.44;62.14
7660;BME280;3872;47.902;8.162;2024-03-23T04:07:15;91112.56;;;14.93;61.47
7660;BME280;3872;47.902;8.162;2024-03-23T04:09:43;91109.59;;;13.53;68.25
7660;BME280;3872;47.902;8.162;2024-03-23T04:12:09;91112.28;;;14.54;64.06
7660;BME280;3872;47.902;8.162;2024-03-23T04:14:35;91105.63;;;13.96;67.68
7660;BME280;3872;47.902;8.162;2024-03-23T04:17:01;91108.25;;;14.08;67.79
7660;BME280;3872;47.902;8.162;2024-03-23T04:19:27;91088.63;;;14.09;68.18
7660;BME280;3872;47.902;8.162;2024-03-23T04:21:53;91076.66;;;14.79;64.43
7660;BME280;3872;47.902;8.162;2024-03-23T04:24:21;91075.16;;;14.38;66.57
7660;BME280;3872;47.902;8.162;2024-03-23T04:26:48;91062.41;;;14.56;64.88
7660;BME280;3872;47.902;8.162;2024-03-23T04:29:16;91053.00;;;14.19;65.34
7660;BME280;3872;47.902;8.162;2024-03-23T04:31:41;91057.19;;;14.87;62.71
7660;BME280;3872;47.902;8.162;2024-03-23T04:34:08;91062.81;;;14.86;64.50
7660;BME280;3872;47.902;8.162;2024-03-23T04:36:34;91083.53;;;14.16;68.94
7660;BME280;3872;47.902;8.162;2024-03-23T04:39:01;91107.13;;;13.24;81.04
7660;BME280;3872;47.902;8.162;2024-03-23T04:41:28;91110.38;;;13.90;82.31
7660;BME280;3872;47.902;8.162;2024-03-23T04:43:55;91101.09;;;14.08;81.34
7660;BME280;3872;47.902;8.162;2024-03-23T04:46:21;91084.50;;;13.47;85.45
7660;BME280;3872;47.902;8.162;2024-03-23T04:48:48;91079.41;;;13.79;84.77
7660;BME280;3872;47.902;8.162;2024-03-23T04:51:20;91093.69;;;14.38;79.09
7660;BME280;3872;47.902;8.162;2024-03-23T04:53:47;91092.41;;;13.84;88.22
7660;BME280;3872;47.902;8.162;2024-03-23T04:56:14;91081.88;;;14.24;84.41
7660;BME280;3872;47.902;8.162;2024-03-23T04:58:41;91093.44;;;12.23;100.00
7660;BME280;3872;47.902;8.162;2024-03-23T05:01:08;91112.91;;;12.72;100.00
7660;BME280;3872;47.902;8.162;2024-03-23T05:03:36;91116.47;;;12.55;100.00
7660;BME280;3872;47.902;8.162;2024-03-23T05:06:03;91115.84;;;13.24;95.56
7660;BME280;3872;47.902;8.162;2024-03-23T05:08:30;91119.63;;;12.07;100.00
7660;BME280;3872;47.902;8.162;2024-03-23T05:10:57;91123.09;;;11.99;100.00
7660;BME280;3872;47.902;8.162;2024-03-23T05:13:23;91106.88;;;12.51;100.00
7660;BME280;3872;47.902;8.162;2024-03-23T05:15:52;91082.91;;;13.22;93.88
7660;BME280;3872;47.902;8.162;2024-03-23T05:18:18;91086.78;;;12.59;100.00
7660;BME280;3872;47.902;8.162;2024-03-23T05:20:45;91090.09;;;13.21;96.17
7660;BME280;3872;47.902;8.162;2024-03-23T05:23:11;91089.66;;;13.31;97.20
7660;BME280;3872;47.902;8.162;2024-03-23T05:25:37;91104.06;;;12.35;100.00
7660;BME280;3872;47.902;8.162;2024-03-23T05:28:03;91100.97;;;12.54;100.00
7660;BME280;3872;47.902;8.162;2024-03-23T05:30:30;91108.41;;;11.90;100.00
7660;BME280;3872;47.902;8.162;2024-03-23T05:32:57;91103.19;;;13.30;96.11
7660;BME280;3872;47.902;8.162;2024-03-23T05:35:24;91111.84;;;12.32;100.00
7660;BME280;3872;47.902;8.162;2024-03-23T05:37:49;91132.69;;;12.25;100.00
7660;BME280;3872;47.902;8.162;2024-03-23T05:40:16;91128.53;;;11.65;100.00
7660;BME280;3872;47.902;8.162;2024-03-23T05:42:42;91136.97;;;12.08;91.64
7660;BME280;3872;47.902;8.162;2024-03-23T05:45:08;91147.09;;;11.77;95.43
7660;BME280;3872;47.902;8.162;2024-03-23T05:47:34;91133.72;;;12.11;90.46
7660;BME280;3872;47.902;8.162;2024-03-23T05:50:02;91135.75;;;11.85;91.52
7660;BME280;3872;47.902;8.162;2024-03-23T05:52:28;91118.50;;;13.04;76.19
7660;BME280;3872;47.902;8.162;2024-03-23T05:54:54;91108.28;;;11.86;74.31
7660;BME280;3872;47.902;8.162;2024-03-23T05:57:20;91111.25;;;11.47;76.13
7660;BME280;3872;47.902;8.162;2024-03-23T05:59:47;91114.19;;;11.45;76.08
7660;BME280;3872;47.902;8.162;2024-03-23T06:02:13;91130.41;;;11.18;81.37
7660;BME280;3872;47.902;8.162;2024-03-23T06:04:40;91133.59;;;11.79;78.97
7660;BME280;3872;47.902;8.162;2024-03-23T06:07:07;91133.91;;;11.77;81.06
7660;BME280;3872;47.902;8.162;2024-03-23T06:09:39;91139.63;;;12.08;78.40
7660;BME280;3872;47.902;8.162;2024-03-23T06:12:06;91170.59;;;11.44;86.40
7660;BME280;3872;47.902;8.162;2024-03-23T06:14:32;91154.81;;;11.82;85.42
7660;BME280;3872;47.902;8.162;2024-03-23T06:16:58;91164.59;;;11.82;88.04
7660;BME280;3872;47.902;8.162;2024-03-23T06:19:25;91164.19;;;12.00;83.06
7660;BME280;3872;47.902;8.162;2024-03-23T06:21:52;91152.50;;;12.31;81.67
7660;BME280;3872;47.902;8.162;2024-03-23T06:24:21;91166.00;;;11.70;85.13
7660;BME280;3872;47.902;8.162;2024-03-23T06:26:46;91163.63;;;11.48;87.30
7660;BME280;3872;47.902;8.162;2024-03-23T06:29:13;91166.63;;;11.67;88.60
7660;BME280;3872;47.902;8.162;2024-03-23T06:31:39;91173.50;;;11.60;86.65
7660;BME280;3872;47.902;8.162;2024-03-23T06:34:05;91180.97;;;10.94;97.06
7660;BME280;3872;47.902;8.162;2024-03-23T06:36:32;91178.84;;;11.34;91.42
7660;BME280;3872;47.902;8.162;2024-03-23T06:38:58;91213.47;;;10.89;96.26
7660;BME280;3872;47.902;8.162;2024-03-23T06:41:26;91244.56;;;11.22;97.15
7660;BME280;3872;47.902;8.162;2024-03-23T06:43:52;91268.47;;;9.47;100.00
7660;BME280;3872;47.902;8.162;2024-03-23T06:46:18;91272.16;;;10.64;100.00
7660;BME280;3872;47.902;8.162;2024-03-23T06:48:44;91248.25;;;9.87;100.00
7660;BME280;3872;47.902;8.162;2024-03-23T06:51:11;91257.34;;;9.80;100.00
7660;BME280;3872;47.902;8.162;2024-03-23T06:53:36;91295.28;;;9.35;100.00
7660;BME280;3872;47.902;8.162;2024-03-23T06:56:03;91289.09;;;8.86;100.00
7660;BME280;3872;47.902;8.162;2024-03-23T06:58:30;91284.16;;;8.35;100.00
7660;BME280;3872;47.902;8.162;2024-03-23T07:00:57;91252.84;;;9.41;100.00
7660;BME280;3872;47.902;8.162;2024-03-23T07:03:22;91268.31;;;9.21;100.00
7660;BME280;3872;47.902;8.162;2024-03-23T07:05:49;91294.53;;;9.65;99.59
7660;BME280;3872;47.902;8.162;2024-03-23T07:08:14;91318.88;;;8.27;100.00
7660;BME280;3872;47.902;8.162;2024-03-23T07:10:46;91322.59;;;8.40;100.00
7660;BME280;3872;47.902;8.162;2024-03-23T07:13:12;91335.84;;;8.71;100.00
7660;BME280;3872;47.902;8.162;2024-03-23T07:15:40;91326.22;;;10.31;84.76
7660;BME280;3872;47.902;8.162;2024-03-23T07:18:05;91338.94;;;8.86;96.36
7660;BME280;3872;47.902;8.162;2024-03-23T07:20:32;91327.03;;;9.47;94.06
7660;BME280;3872;47.902;8.162;2024-03-23T07:22:57;91342.03;;;9.11;95.79
7660;BME280;3872;47.902;8.162;2024-03-23T07:25:24;91355.97;;;8.48;99.87
7660;BME280;3872;47.902;8.162;2024-03-23T07:27:51;91373.41;;;7.98;100.00
7660;BME280;3872;47.902;8.162;2024-03-23T07:30:19;91381.53;;;7.18;100.00
7660;BME280;3872;47.902;8.162;2024-03-23T07:32:46;91367.22;;;8.07;100.00
7660;BME280;3872;47.902;8.162;2024-03-23T07:35:12;91378.09;;;7.55;100.00
7660;BME280;3872;47.902;8.162;2024-03-23T07:37:38;91369.34;;;8.05;100.00
7660;BME280;3872;47.902;8.162;2024-03-23T07:40:06;91384.19;;;7.96;100.00
7660;BME280;3872;47.902;8.162;2024-03-23T07:42:31;91401.16;;;7.85;100.00
7660;BME280;3872;47.902;8.162;2024-03-23T07:44:58;91400.78;;;8.05;100.00
7660;BME280;3872;47.902;8.162;2024-03-23T07:47:23;91402.75;;;7.35;100.00
7660;BME280;3872;47.902;8.162;2024-03-23T07:49:51;91397.84;;;8.39;100.00
7660;BME280;3872;47.902;8.162;2024-03-23T07:52:17;91416.63;;;7.68;100.00
7660;BME280;3872;47.902;8.162;2024-03-23T07:54:43;91424.25;;;6.94;100.00
7660;BME280;3872;47.902;8.162;2024-03-23T07:57:10;91426.28;;;7.86;100.00
7660;BME280;3872;47.902;8.162;2024-03-23T07:59:36;91432.41;;;7.63;100.00
7660;BME280;3872;47.902;8.162;2024-03-23T08:02:02;91454.06;;;7.68;100.00
7660;BME280;3872;47.902;8.162;2024-03-23T08:04:29;91455.28;;;7.90;100.00
7660;BME280;3872;47.902;8.162;2024-03-23T08:06:56;91475.50;;;7.70;100.00
7660;BME280;3872;47.902;8.162;2024-03-23T08:09:22;91468.09;;;7.21;100.00
7660;BME280;3872;47.902;8.162;2024-03-23T08:11:48;91460.97;;;8.56;97.16
7660;BME280;3872;47.902;8.162;2024-03-23T08:14:15;91475.97;;;7.21;100.00
7660;BME280;3872;47.902;8.162;2024-03-23T08:16:40;91472.41;;;8.47;100.00
7660;BME280;3872;47.902;8.162;2024-03-23T08:19:07;91487.56;;;7.53;100.00
7660;BME280;3872;47.902;8.162;2024-03-23T08:21:34;91508.09;;;7.97;100.00
7660;BME280;3872;47.902;8.162;2024-03-23T08:24:01;91507.66;;;7.38;100.00
7660;BME280;3872;47.902;8.162;2024-03-23T08:26:28;91512.19;;;7.70;100.00
7660;BME280;3872;47.902;8.162;2024-03-23T08:28:55;91520.78;;;7.15;100.00
7660;BME280;3872;47.902;8.162;2024-03-23T08:31:20;91537.78;;;7.17;100.00
7660;BME280;3872;47.902;8.162;2024-03-23T08:33:47;91548.88;;;7.09;100.00
7660;BME280;3872;47.902;8.162;2024-03-23T08:36:13;91546.91;;;6.72;100.00
7660;BME280;3872;47.902;8.162;2024-03-23T08:38:40;91552.88;;;7.63;100.00
7660;BME280;3872;47.902;8.162;2024-03-23T08:41:08;91557.84;;;7.64;98.84
7660;BME280;3872;47.902;8.162;2024-03-23T08:43:36;91557.34;;;7.20;100.00
7660;BME280;3872;47.902;8.162;2024-03-23T08:46:06;91555.41;;;7.06;100.00
7660;BME280;3872;47.902;8.162;2024-03-23T08:48:34;91565.56;;;7.32;100.00
7660;BME280;3872;47.902;8.162;2024-03-23T08:51:00;91581.06;;;7.52;100.00
7660;BME280;3872;47.902;8.162;2024-03-23T08:53:28;91578.16;;;7.91;100.00
7660;BME280;3872;47.902;8.162;2024-03-23T08:55:54;91570.00;;;8.90;84.60
7660;BME280;3872;47.902;8.162;2024-03-23T08:58:23;91563.69;;;8.77;88.26
7660;BME280;3872;47.902;8.162;2024-03-23T09:00:49;91554.56;;;9.29;80.66
7660;BME280;3872;47.902;8.162;2024-03-23T09:03:16;91557.66;;;8.90;91.55
7660;BME280;3872;47.902;8.162;2024-03-23T09:05:41;91566.44;;;8.53;92.05
7660;BME280;3872;47.902;8.162;2024-03-23T09:08:08;91564.09;;;8.38;91.29
7660;BME280;3872;47.902;8.162;2024-03-23T09:10:38;91558.09;;;9.74;74.70
7660;BME280;3872;47.902;8.162;2024-03-23T09:13:05;91552.22;;;9.91;73.56
7660;BME280;3872;47.902;8.162;2024-03-23T09:15:34;91552.97;;;10.50;67.16
7660;BME280;3872;47.902;8.162;2024-03-23T09:18:00;91565.28;;;10.18;67.52
7660;BME280;3872;47.902;8.162;2024-03-23T09:20:26;91569.41;;;9.61;67.69
7660;BME280;3872;47.902;8.162;2024-03-23T09:22:53;91546.78;;;10.10;65.80
7660;BME280;3872;47.902;8.162;2024-03-23T09:25:18;91556.97;;;7.69;76.35
7660;BME280;3872;47.902;8.162;2024-03-23T09:27:46;91563.72;;;8.26;74.14
7660;BME280;3872;47.902;8.162;2024-03-23T09:30:12;91562.63;;;8.46;75.68
7660;BME280;3872;47.902;8.162;2024-03-23T09:32:41;91567.88;;;8.46;77.20
7660;BME280;3872;47.902;8.162;2024-03-23T09:35:07;91555.94;;;8.99;73.74
7660;BME280;3872;47.902;8.162;2024-03-23T09:37:34;91550.69;;;8.40;73.94
7660;BME280;3872;47.902;8.162;2024-03-23T09:39:59;91551.63;;;9.03;71.87
7660;BME280;3872;47.902;8.162;2024-03-23T09:42:26;91554.44;;;9.48;76.93
7660;BME280;3872;47.902;8.162;2024-03-23T09:44:52;91554.63;;;8.56;78.75
7660;BME280;3872;47.902;8.162;2024-03-23T09:47:20;91549.91;;;8.85;79.71
7660;BME280;3872;47.902;8.162;2024-03-23T09:49:47;91532.03;;;9.64;75.58
7660;BME280;3872;47.902;8.162;2024-03-23T09:52:14;91542.34;;;9.97;70.75
7660;BME280;3872;47.902;8.162;2024-03-23T09:54:40;91558.75;;;7.73;85.53
7660;BME280;3872;47.902;8.162;2024-03-23T09:57:06;91558.88;;;7.44;88.75
7660;BME280;3872;47.902;8.162;2024-03-23T09:59:32;91578.25;;;8.83;76.69
7660;BME280;3872;47.902;8.162;2024-03-23T10:01:59;91564.81;;;8.06;81.91
7660;BME280;3872;47.902;8.162;2024-03-23T10:04:38;91568.47;;;9.30;74.39
7660;BME280;3872;47.902;8.162;2024-03-23T10:07:13;91552.41;;;9.59;71.83
7660;BME280;3872;47.902;8.162;2024-03-23T10:09:39;91549.91;;;9.13;73.20
7660;BME280;3872;47.902;8.162;2024-03-23T10:12:10;91533.84;;;9.77;65.53
7660;BME280;3872;47.902;8.162;2024-03-23T10:14:37;91532.97;;;9.05;74.36
7660;BME280;3872;47.902;8.162;2024-03-23T10:17:12;91526.38;;;9.21;74.07
7660;BME280;3872;47.902;8.162;2024-03-23T10:19:39;91536.56;;;8.95;69.79
7660;BME280;3872;47.902;8.162;2024-03-23T10:22:07;91528.09;;;10.56;64.18
7660;BME280;3872;47.902;8.162;2024-03-23T10:24:34;91541.88;;;9.59;63.99
7660;BME280;3872;47.902;8.162;2024-03-23T10:27:01;91524.19;;;10.09;62.66
7660;BME280;3872;47.902;8.162;2024-03-23T10:29:26;91534.59;;;9.56;64.26
7660;BME280;3872;47.902;8.162;2024-03-23T10:31:53;91552.13;;;8.32;68.92
7660;BME280;3872;47.902;8.162;2024-03-23T10:34:25;91548.22;;;8.89;64.92
7660;BME280;3872;47.902;8.162;2024-03-23T10:36:53;91532.38;;;9.49;63.53
7660;BME280;3872;47.902;8.162;2024-03-23T10:39:20;91535.31;;;9.07;62.92
7660;BME280;3872;47.902;8.162;2024-03-23T10:41:50;91529.88;;;8.11;61.73
7660;BME280;3872;47.902;8.162;2024-03-23T10:44:17;91533.28;;;9.03;61.06
7660;BME280;3872;47.902;8.162;2024-03-23T10:46:45;91533.25;;;8.30;64.07
7660;BME280;3872;47.902;8.162;2024-03-23T10:49:11;91545.81;;;8.66;65.70
7660;BME280;3872;47.902;8.162;2024-03-23T10:51:38;91542.13;;;8.94;63.03
7660;BME280;3872;47.902;8.162;2024-03-23T10:54:04;91548.06;;;7.51;69.50
7660;BME280;3872;47.902;8.162;2024-03-23T10:56:35;91543.81;;;8.25;66.44
7660;BME280;3872;47.902;8.162;2024-03-23T10:59:03;91545.66;;;7.92;71.93
7660;BME280;3872;47.902;8.162;2024-03-23T11:01:32;91557.03;;;8.01;68.80
7660;BME280;3872;47.902;8.162;2024-03-23T11:03:58;91544.72;;;8.67;64.25
7660;BME280;3872;47.902;8.162;2024-03-23T11:06:34;91531.81;;;9.11;62.33
7660;BME280;3872;47.902;8.162;2024-03-23T11:09:00;91554.09;;;9.14;59.32
7660;BME280;3872;47.902;8.162;2024-03-23T11:11:27;91567.34;;;8.11;67.80
7660;BME280;3872;47.902;8.162;2024-03-23T11:13:54;91578.47;;;8.73;68.05
7660;BME280;3872;47.902;8.162;2024-03-23T11:16:24;91598.78;;;7.36;81.93
7660;BME280;3872;47.902;8.162;2024-03-23T11:18:53;91601.25;;;6.51;90.86
7660;BME280;3872;47.902;8.162;2024-03-23T11:21:51;91603.53;;;5.90;100.00
7660;BME280;3872;47.902;8.162;2024-03-23T11:24:17;91625.56;;;5.69;100.00
7660;BME280;3872;47.902;8.162;2024-03-23T11:26:44;91615.91;;;5.69;100.00
7660;BME280;3872;47.902;8.162;2024-03-23T11:29:09;91610.00;;;6.03;100.00
7660;BME280;3872;47.902;8.162;2024-03-23T11:31:38;91618.78;;;7.27;90.91
7660;BME280;3872;47.902;8.162;2024-03-23T11:34:05;91619.97;;;5.96;100.00
7660;BME280;3872;47.902;8.162;2024-03-23T11:36:31;91614.66;;;7.45;85.35
7660;BME280;3872;47.902;8.162;2024-03-23T11:38:58;91618.94;;;7.12;89.28
7660;BME280;3872;47.902;8.162;2024-03-23T11:41:25;91613.03;;;7.49;87.83
7660;BME280;3872;47.902;8.162;2024-03-23T11:43:51;91615.97;;;7.42;86.32
7660;BME280;3872;47.902;8.162;2024-03-23T11:46:22;91620.28;;;7.10;91.84
7660;BME280;3872;47.902;8.162;2024-03-23T11:48:51;91616.25;;;6.93;97.51
7660;BME280;3872;47.902;8.162;2024-03-23T11:51:17;91607.88;;;8.00;76.66
7660;BME280;3872;47.902;8.162;2024-03-23T11:53:43;91611.09;;;7.55;86.80
7660;BME280;3872;47.902;8.162;2024-03-23T11:56:09;91618.72;;;7.08;90.92
7660;BME280;3872;47.902;8.162;2024-03-23T11:58:35;91622.88;;;7.33;88.73
7660;BME280;3872;47.902;8.162;2024-03-23T12:01:03;91631.22;;;5.91;100.00
7660;BME280;3872;47.902;8.162;2024-03-23T12:03:31;91622.56;;;6.92;89.65
7660;BME280;3872;47.902;8.162;2024-03-23T12:06:00;91617.28;;;7.21;92.52
7660;BME280;3872;47.902;8.162;2024-03-23T12:08:29;91609.16;;;7.84;85.33
7660;BME280;3872;47.902;8.162;2024-03-23T12:11:04;91612.44;;;6.57;98.11
7660;BME280;3872;47.902;8.162;2024-03-23T12:13:31;91593.19;;;8.18;82.30
7660;BME280;3872;47.902;8.162;2024-03-23T12:16:09;91593.50;;;7.79;85.57
7660;BME280;3872;47.902;8.162;2024-03-23T12:18:36;91594.69;;;9.02;75.17
7660;BME280;3872;47.902;8.162;2024-03-23T12:21:04;91593.16;;;7.67;87.90
7660;BME280;3872;47.902;8.162;2024-03-23T12:23:30;91579.63;;;7.97;90.47
7660;BME280;3872;47.902;8.162;2024-03-23T12:25:56;91571.94;;;7.87;88.36
7660;BME280;3872;47.902;8.162;2024-03-23T12:28:22;91574.97;;;7.94;80.32
7660;BME280;3872;47.902;8.162;2024-03-23T12:30:48;91582.81;;;7.75;75.10
7660;BME280;3872;47.902;8.162;2024-03-23T12:33:15;91562.84;;;7.61;72.17
7660;BME280;3872;47.902;8.162;2024-03-23T12:35:41;91554.19;;;9.09;67.65
7660;BME280;3872;47.902;8.162;2024-03-23T12:38:09;91538.78;;;10.59;60.10
7660;BME280;3872;47.902;8.162;2024-03-23T12:40:34;91524.00;;;11.12;60.46
7660;BME280;3872;47.902;8.162;2024-03-23T12:43:01;91533.28;;;10.70;58.39
7660;BME280;3872;47.902;8.162;2024-03-23T12:45:27;91513.56;;;10.58;56.39
7660;BME280;3872;47.902;8.162;2024-03-23T12:47:55;91522.00;;;10.47;61.38
7660;BME280;3872;47.902;8.162;2024-03-23T12:50:21;91520.53;;;9.11;60.63
7660;BME280;3872;47.902;8.162;2024-03-23T12:52:48;91538.31;;;8.59;63.06
7660;BME280;3872;47.902;8.162;2024-03-23T12:55:15;91542.41;;;7.81;67.13
7660;BME280;3872;47.902;8.162;2024-03-23T12:57:42;91562.53;;;9.11;63.17
7660;BME280;3872;47.902;8.162;2024-03-23T13:00:08;91579.91;;;7.16;79.60
7660;BME280;3872;47.902;8.162;2024-03-23T13:02:36;91540.09;;;8.12;73.22
7660;BME280;3872;47.902;8.162;2024-03-23T13:05:03;91542.19;;;8.61;73.03
7660;BME280;3872;47.902;8.162;2024-03-23T13:07:30;91544.34;;;8.59;74.14
7660;BME280;3872;47.902;8.162;2024-03-23T13:09:55;91531.50;;;7.56;78.80
7660;BME280;3872;47.902;8.162;2024-03-23T13:12:24;91518.63;;;9.52;71.10
7660;BME280;3872;47.902;8.162;2024-03-23T13:14:50;91535.03;;;9.22;76.86
7660;BME280;3872;47.902;8.162;2024-03-23T13:17:16;91520.03;;;10.83;65.80
7660;BME280;3872;47.902;8.162;2024-03-23T13:19:42;91537.50;;;10.48;67.63
7660;BME280;3872;47.902;8.162;2024-03-23T13:22:08;91522.47;;;10.04;64.91
7660;BME280;3872;47.902;8.162;2024-03-23T13:24:37;91520.16;;;10.78;60.01
7660;BME280;3872;47.902;8.162;2024-03-23T13:27:04;91530.19;;;9.65;59.54
7660;BME280;3872;47.902;8.162;2024-03-23T13:29:32;91536.22;;;8.42;60.46
7660;BME280;3872;47.902;8.162;2024-03-23T13:31:59;91545.72;;;7.68;64.74
7660;BME280;3872;47.902;8.162;2024-03-23T13:34:26;91530.88;;;8.34;63.36
7660;BME280;3872;47.902;8.162;2024-03-23T13:36:54;91540.72;;;8.55;61.15
7660;BME280;3872;47.902;8.162;2024-03-23T13:39:21;91531.66;;;8.34;60.71
7660;BME280;3872;47.902;8.162;2024-03-23T13:41:48;91518.50;;;9.08;56.22
7660;BME280;3872;47.902;8.162;2024-03-23T13:44:14;91527.22;;;9.17;58.42
7660;BME280;3872;47.902;8.162;2024-03-23T13:46:43;91529.88;;;9.30;56.15
7660;BME280;3872;47.902;8.162;2024-03-23T13:49:21;91509.03;;;10.50;49.44
7660;BME280;3872;47.902;8.162;2024-03-23T13:51:51;91520.78;;;9.50;57.38
7660;BME280;3872;47.902;8.162;2024-03-23T13:54:17;91514.31;;;10.59;48.73
7660;BME280;3872;47.902;8.162;2024-03-23T13:56:44;91502.34;;;11.15;48.15
7660;BME280;3872;47.902;8.162;2024-03-23T13:59:10;91503.31;;;12.65;44.57
7660;BME280;3872;47.902;8.162;2024-03-23T14:01:37;91498.81;;;10.80;48.00
7660;BME280;3872;47.902;8.162;2024-03-23T14:04:04;91483.31;;;10.78;52.33
7660;BME280;3872;47.902;8.162;2024-03-23T14:06:30;91485.84;;;12.90;43.50
7660;BME280;3872;47.902;8.162;2024-03-23T14:08:56;91478.66;;;11.15;47.69
7660;BME280;3872;47.902;8.162;2024-03-23T14:11:22;91479.41;;;11.15;46.19
7660;BME280;3872;47.902;8.162;2024-03-23T14:13:48;91464.66;;;13.87;42.48
7660;BME280;3872;47.902;8.162;2024-03-23T14:16:15;91464.94;;;11.95;44.62